Argonne, South Dakota
Current Conditions -  °F | °C
As of 11:10 PM on Friday 28 Nov 2014 (Local Time) from KMDS Reporting Station
Few Clouds Few Clouds  
Wind Chill: 15°   Ceiling: Unl
Heat Index: 23°   Visibility: 7mi
Dew Point: 23°   Wind: 7mph
Humidity: 100%   Direction: 130°SE
Pressure: 29.54"   Gusts: NA
Location:  44.0529°N, 97.5161°W
Report Text: KMDS 290510Z AUTO 13006KT 7SM FEW003 M05/M05 A2954 RMK AO2
Loading
Personal Weather Stations






























Interactive Weather Map New forecast layout! Learn more

10-Day Weather Forecast

Advertisements
Track Severe Weather on mobile